sensor_id;sensor_type;location;lat;lon;timestamp;P1;durP1;ratioP1;P2;durP2;ratioP2
55346;SDS011;41218;55.700;38.270;2023-08-12T00:01:42;12.25;;;9.25;;
55346;SDS011;41218;55.700;38.270;2023-08-12T00:06:43;13.07;;;9.23;;
55346;SDS011;41218;55.700;38.270;2023-08-12T00:11:43;16.85;;;10.38;;
55346;SDS011;41218;55.700;38.270;2023-08-12T00:16:44;13.90;;;9.60;;
55346;SDS011;41218;55.700;38.270;2023-08-12T00:21:45;15.68;;;9.55;;
55346;SDS011;41218;55.700;38.270;2023-08-12T00:26:45;14.98;;;9.45;;
55346;SDS011;41218;55.700;38.270;2023-08-12T00:31:46;13.25;;;9.25;;
55346;SDS011;41218;55.700;38.270;2023-08-12T00:36:47;13.02;;;9.35;;
55346;SDS011;41218;55.700;38.270;2023-08-12T00:41:47;10.82;;;9.10;;
55346;SDS011;41218;55.700;38.270;2023-08-12T00:46:48;12.73;;;10.00;;
55346;SDS011;41218;55.700;38.270;2023-08-12T00:51:49;13.85;;;8.93;;
55346;SDS011;41218;55.700;38.270;2023-08-12T00:56:51;12.10;;;9.20;;
55346;SDS011;41218;55.700;38.270;2023-08-12T01:01:53;11.70;;;9.30;;
55346;SDS011;41218;55.700;38.270;2023-08-12T01:06:53;12.60;;;9.15;;
55346;SDS011;41218;55.700;38.270;2023-08-12T01:11:59;11.93;;;9.95;;
55346;SDS011;41218;55.700;38.270;2023-08-12T01:17:05;11.90;;;9.73;;
55346;SDS011;41218;55.700;38.270;2023-08-12T01:22:11;14.00;;;9.52;;
55346;SDS011;41218;55.700;38.270;2023-08-12T01:27:13;15.50;;;9.68;;
55346;SDS011;41218;55.700;38.270;2023-08-12T01:32:21;12.55;;;10.27;;
55346;SDS011;41218;55.700;38.270;2023-08-12T01:37:29;18.65;;;11.10;;
55346;SDS011;41218;55.700;38.270;2023-08-12T01:42:32;14.48;;;9.88;;
55346;SDS011;41218;55.700;38.270;2023-08-12T01:47:34;12.20;;;9.43;;
55346;SDS011;41218;55.700;38.270;2023-08-12T01:52:35;13.45;;;9.55;;
55346;SDS011;41218;55.700;38.270;2023-08-12T01:57:35;13.40;;;9.95;;
55346;SDS011;41218;55.700;38.270;2023-08-12T02:02:36;11.73;;;9.35;;
55346;SDS011;41218;55.700;38.270;2023-08-12T02:07:36;13.20;;;9.82;;
55346;SDS011;41218;55.700;38.270;2023-08-12T02:12:37;10.85;;;9.20;;
55346;SDS011;41218;55.700;38.270;2023-08-12T02:17:38;13.32;;;8.85;;
55346;SDS011;41218;55.700;38.270;2023-08-12T02:22:38;13.10;;;9.48;;
55346;SDS011;41218;55.700;38.270;2023-08-12T02:27:39;15.20;;;9.63;;
55346;SDS011;41218;55.700;38.270;2023-08-12T02:32:39;14.80;;;9.32;;
55346;SDS011;41218;55.700;38.270;2023-08-12T02:37:43;14.07;;;8.73;;
55346;SDS011;41218;55.700;38.270;2023-08-12T02:42:43;11.32;;;8.90;;
55346;SDS011;41218;55.700;38.270;2023-08-12T02:47:44;11.55;;;9.95;;
55346;SDS011;41218;55.700;38.270;2023-08-12T02:52:44;14.98;;;9.60;;
55346;SDS011;41218;55.700;38.270;2023-08-12T02:57:45;13.52;;;9.95;;
55346;SDS011;41218;55.700;38.270;2023-08-12T03:02:46;12.90;;;10.57;;
55346;SDS011;41218;55.700;38.270;2023-08-12T03:07:46;12.52;;;10.13;;
55346;SDS011;41218;55.700;38.270;2023-08-12T03:12:47;14.50;;;10.32;;
55346;SDS011;41218;55.700;38.270;2023-08-12T03:17:47;16.23;;;10.80;;
55346;SDS011;41218;55.700;38.270;2023-08-12T03:22:48;13.85;;;10.70;;
55346;SDS011;41218;55.700;38.270;2023-08-12T03:27:49;14.57;;;10.55;;
55346;SDS011;41218;55.700;38.270;2023-08-12T03:32:50;15.98;;;10.32;;
55346;SDS011;41218;55.700;38.270;2023-08-12T03:37:51;15.95;;;11.15;;
55346;SDS011;41218;55.700;38.270;2023-08-12T03:42:53;17.00;;;11.02;;
55346;SDS011;41218;55.700;38.270;2023-08-12T03:47:54;14.02;;;10.60;;
55346;SDS011;41218;55.700;38.270;2023-08-12T03:52:54;12.98;;;10.38;;
55346;SDS011;41218;55.700;38.270;2023-08-12T03:57:55;13.90;;;10.25;;
55346;SDS011;41218;55.700;38.270;2023-08-12T04:02:55;17.33;;;11.00;;
55346;SDS011;41218;55.700;38.270;2023-08-12T04:07:56;15.85;;;9.88;;
55346;SDS011;41218;55.700;38.270;2023-08-12T04:12:56;14.32;;;10.85;;
55346;SDS011;41218;55.700;38.270;2023-08-12T04:17:57;13.27;;;10.15;;
55346;SDS011;41218;55.700;38.270;2023-08-12T04:22:58;14.27;;;11.00;;
55346;SDS011;41218;55.700;38.270;2023-08-12T04:27:59;14.63;;;10.88;;
55346;SDS011;41218;55.700;38.270;2023-08-12T04:32:59;14.85;;;10.65;;
55346;SDS011;41218;55.700;38.270;2023-08-12T04:38:00;12.25;;;10.20;;
55346;SDS011;41218;55.700;38.270;2023-08-12T04:43:01;11.52;;;9.60;;
55346;SDS011;41218;55.700;38.270;2023-08-12T04:48:01;12.32;;;9.88;;
55346;SDS011;41218;55.700;38.270;2023-08-12T04:53:02;14.40;;;9.70;;
55346;SDS011;41218;55.700;38.270;2023-08-12T04:58:03;14.20;;;10.48;;
55346;SDS011;41218;55.700;38.270;2023-08-12T05:03:04;14.35;;;10.30;;
55346;SDS011;41218;55.700;38.270;2023-08-12T05:08:05;14.50;;;10.13;;
55346;SDS011;41218;55.700;38.270;2023-08-12T05:13:05;13.13;;;10.02;;
55346;SDS011;41218;55.700;38.270;2023-08-12T05:18:06;14.38;;;10.50;;
55346;SDS011;41218;55.700;38.270;2023-08-12T05:23:07;13.70;;;10.52;;
55346;SDS011;41218;55.700;38.270;2023-08-12T05:28:08;12.60;;;9.73;;
55346;SDS011;41218;55.700;38.270;2023-08-12T05:33:09;12.45;;;9.68;;
55346;SDS011;41218;55.700;38.270;2023-08-12T05:38:09;13.93;;;9.77;;
55346;SDS011;41218;55.700;38.270;2023-08-12T05:43:10;13.50;;;9.68;;
55346;SDS011;41218;55.700;38.270;2023-08-12T05:48:10;14.35;;;10.68;;
55346;SDS011;41218;55.700;38.270;2023-08-12T05:53:11;15.10;;;10.80;;
55346;SDS011;41218;55.700;38.270;2023-08-12T05:58:11;13.13;;;10.13;;
55346;SDS011;41218;55.700;38.270;2023-08-12T06:03:12;14.90;;;10.13;;
55346;SDS011;41218;55.700;38.270;2023-08-12T06:08:13;12.98;;;10.10;;
55346;SDS011;41218;55.700;38.270;2023-08-12T06:13:14;15.70;;;10.95;;
55346;SDS011;41218;55.700;38.270;2023-08-12T06:18:14;13.77;;;10.55;;
55346;SDS011;41218;55.700;38.270;2023-08-12T06:23:15;13.95;;;10.10;;
55346;SDS011;41218;55.700;38.270;2023-08-12T06:28:16;15.88;;;10.35;;
55346;SDS011;41218;55.700;38.270;2023-08-12T06:33:17;14.45;;;10.05;;
55346;SDS011;41218;55.700;38.270;2023-08-12T06:38:17;14.65;;;10.15;;
55346;SDS011;41218;55.700;38.270;2023-08-12T06:43:18;12.05;;;9.82;;
55346;SDS011;41218;55.700;38.270;2023-08-12T06:48:18;12.27;;;9.60;;
55346;SDS011;41218;55.700;38.270;2023-08-12T06:53:19;13.02;;;9.50;;
55346;SDS011;41218;55.700;38.270;2023-08-12T06:58:19;12.15;;;9.35;;
55346;SDS011;41218;55.700;38.270;2023-08-12T07:03:20;15.88;;;10.50;;
55346;SDS011;41218;55.700;38.270;2023-08-12T07:08:20;12.20;;;9.40;;
55346;SDS011;41218;55.700;38.270;2023-08-12T07:13:21;13.55;;;9.38;;
55346;SDS011;41218;55.700;38.270;2023-08-12T07:18:21;13.65;;;9.45;;
55346;SDS011;41218;55.700;38.270;2023-08-12T07:23:23;14.73;;;9.82;;
55346;SDS011;41218;55.700;38.270;2023-08-12T07:28:23;11.30;;;9.20;;
55346;SDS011;41218;55.700;38.270;2023-08-12T07:33:24;10.95;;;9.10;;
55346;SDS011;41218;55.700;38.270;2023-08-12T07:38:25;11.75;;;9.20;;
55346;SDS011;41218;55.700;38.270;2023-08-12T07:43:25;14.15;;;9.00;;
55346;SDS011;41218;55.700;38.270;2023-08-12T07:48:26;12.48;;;9.35;;
55346;SDS011;41218;55.700;38.270;2023-08-12T07:53:26;11.98;;;8.77;;
55346;SDS011;41218;55.700;38.270;2023-08-12T07:58:27;12.00;;;8.82;;
55346;SDS011;41218;55.700;38.270;2023-08-12T08:03:27;10.90;;;8.68;;
55346;SDS011;41218;55.700;38.270;2023-08-12T08:08:28;13.90;;;8.95;;
55346;SDS011;41218;55.700;38.270;2023-08-12T08:13:28;11.23;;;9.38;;
55346;SDS011;41218;55.700;38.270;2023-08-12T08:18:29;13.95;;;10.02;;
55346;SDS011;41218;55.700;38.270;2023-08-12T08:23:30;11.25;;;9.38;;
55346;SDS011;41218;55.700;38.270;2023-08-12T08:28:30;12.27;;;10.02;;
55346;SDS011;41218;55.700;38.270;2023-08-12T08:33:31;12.68;;;10.05;;
55346;SDS011;41218;55.700;38.270;2023-08-12T08:38:31;13.55;;;10.60;;
55346;SDS011;41218;55.700;38.270;2023-08-12T08:43:32;14.07;;;10.90;;
55346;SDS011;41218;55.700;38.270;2023-08-12T08:48:35;15.57;;;11.30;;
55346;SDS011;41218;55.700;38.270;2023-08-12T08:53:39;13.68;;;10.60;;
55346;SDS011;41218;55.700;38.270;2023-08-12T08:58:40;14.07;;;11.05;;
55346;SDS011;41218;55.700;38.270;2023-08-12T09:03:41;14.45;;;10.43;;
55346;SDS011;41218;55.700;38.270;2023-08-12T09:08:45;16.17;;;10.60;;
55346;SDS011;41218;55.700;38.270;2023-08-12T09:13:47;14.45;;;10.02;;
55346;SDS011;41218;55.700;38.270;2023-08-12T09:18:49;13.35;;;10.77;;
55346;SDS011;41218;55.700;38.270;2023-08-12T09:23:55;14.80;;;10.77;;
55346;SDS011;41218;55.700;38.270;2023-08-12T09:28:56;14.38;;;10.65;;
55346;SDS011;41218;55.700;38.270;2023-08-12T09:34:03;13.95;;;10.43;;
55346;SDS011;41218;55.700;38.270;2023-08-12T09:39:07;15.38;;;10.70;;
55346;SDS011;41218;55.700;38.270;2023-08-12T09:44:11;16.38;;;11.18;;
55346;SDS011;41218;55.700;38.270;2023-08-12T09:49:11;14.90;;;11.05;;
55346;SDS011;41218;55.700;38.270;2023-08-12T09:54:12;19.23;;;11.48;;
55346;SDS011;41218;55.700;38.270;2023-08-12T09:59:12;16.73;;;10.80;;
55346;SDS011;41218;55.700;38.270;2023-08-12T10:04:21;13.38;;;10.45;;
55346;SDS011;41218;55.700;38.270;2023-08-12T10:09:23;14.25;;;11.07;;
55346;SDS011;41218;55.700;38.270;2023-08-12T10:14:24;14.25;;;10.40;;
55346;SDS011;41218;55.700;38.270;2023-08-12T10:19:26;15.50;;;10.93;;
55346;SDS011;41218;55.700;38.270;2023-08-12T10:24:28;13.02;;;10.38;;
55346;SDS011;41218;55.700;38.270;2023-08-12T10:29:29;15.50;;;11.00;;
55346;SDS011;41218;55.700;38.270;2023-08-12T10:34:30;13.98;;;10.45;;
55346;SDS011;41218;55.700;38.270;2023-08-12T10:39:32;14.35;;;10.30;;
55346;SDS011;41218;55.700;38.270;2023-08-12T10:44:40;16.45;;;11.13;;
55346;SDS011;41218;55.700;38.270;2023-08-12T11:00:19;16.10;;;10.83;;
55346;SDS011;41218;55.700;38.270;2023-08-12T11:05:23;17.35;;;9.98;;
55346;SDS011;41218;55.700;38.270;2023-08-12T11:10:25;14.63;;;10.15;;
55346;SDS011;41218;55.700;38.270;2023-08-12T11:15:37;13.82;;;9.93;;
55346;SDS011;41218;55.700;38.270;2023-08-12T11:20:41;16.58;;;10.05;;
55346;SDS011;41218;55.700;38.270;2023-08-12T11:25:43;14.63;;;9.98;;
55346;SDS011;41218;55.700;38.270;2023-08-12T11:30:45;11.18;;;8.77;;
55346;SDS011;41218;55.700;38.270;2023-08-12T11:35:45;23.80;;;9.88;;
55346;SDS011;41218;55.700;38.270;2023-08-12T11:40:46;11.48;;;8.30;;
55346;SDS011;41218;55.700;38.270;2023-08-12T11:45:47;14.40;;;8.20;;
55346;SDS011;41218;55.700;38.270;2023-08-12T11:50:47;31.75;;;9.25;;
55346;SDS011;41218;55.700;38.270;2023-08-12T11:55:48;19.48;;;8.27;;
55346;SDS011;41218;55.700;38.270;2023-08-12T12:00:49;32.20;;;17.80;;
55346;SDS011;41218;55.700;38.270;2023-08-12T12:05:49;20.23;;;12.75;;
55346;SDS011;41218;55.700;38.270;2023-08-12T12:10:56;18.60;;;10.98;;
55346;SDS011;41218;55.700;38.270;2023-08-12T12:15:57;18.45;;;10.20;;
55346;SDS011;41218;55.700;38.270;2023-08-12T12:20:58;12.65;;;9.15;;
55346;SDS011;41218;55.700;38.270;2023-08-12T12:26:02;12.07;;;8.80;;
55346;SDS011;41218;55.700;38.270;2023-08-12T12:31:03;12.95;;;9.00;;
55346;SDS011;41218;55.700;38.270;2023-08-12T12:36:04;13.30;;;8.95;;
55346;SDS011;41218;55.700;38.270;2023-08-12T12:41:05;13.02;;;9.43;;
55346;SDS011;41218;55.700;38.270;2023-08-12T12:46:07;13.88;;;9.02;;
55346;SDS011;41218;55.700;38.270;2023-08-12T12:51:08;12.55;;;8.80;;
55346;SDS011;41218;55.700;38.270;2023-08-12T12:56:08;12.48;;;8.68;;
55346;SDS011;41218;55.700;38.270;2023-08-12T13:01:09;12.30;;;8.73;;
55346;SDS011;41218;55.700;38.270;2023-08-12T13:06:13;12.25;;;9.13;;
55346;SDS011;41218;55.700;38.270;2023-08-12T13:11:13;14.07;;;8.63;;
55346;SDS011;41218;55.700;38.270;2023-08-12T13:16:14;11.85;;;9.15;;
55346;SDS011;41218;55.700;38.270;2023-08-12T13:21:14;12.38;;;9.55;;
55346;SDS011;41218;55.700;38.270;2023-08-12T13:26:15;14.75;;;9.50;;
55346;SDS011;41218;55.700;38.270;2023-08-12T13:31:16;15.88;;;10.52;;
55346;SDS011;41218;55.700;38.270;2023-08-12T13:36:17;13.82;;;9.90;;
55346;SDS011;41218;55.700;38.270;2023-08-12T13:41:17;13.65;;;9.77;;
55346;SDS011;41218;55.700;38.270;2023-08-12T13:46:18;17.00;;;9.73;;
55346;SDS011;41218;55.700;38.270;2023-08-12T13:51:18;16.20;;;10.35;;
55346;SDS011;41218;55.700;38.270;2023-08-12T13:56:19;15.25;;;10.65;;
55346;SDS011;41218;55.700;38.270;2023-08-12T14:01:20;41.20;;;29.35;;
55346;SDS011;41218;55.700;38.270;2023-08-12T14:06:23;22.40;;;15.55;;
55346;SDS011;41218;55.700;38.270;2023-08-12T14:11:24;27.58;;;16.08;;
55346;SDS011;41218;55.700;38.270;2023-08-12T14:16:24;31.00;;;21.45;;
55346;SDS011;41218;55.700;38.270;2023-08-12T14:21:25;24.60;;;17.10;;
55346;SDS011;41218;55.700;38.270;2023-08-12T14:26:26;22.75;;;17.50;;
55346;SDS011;41218;55.700;38.270;2023-08-12T14:31:27;18.65;;;12.23;;
55346;SDS011;41218;55.700;38.270;2023-08-12T14:36:27;19.05;;;11.52;;
55346;SDS011;41218;55.700;38.270;2023-08-12T14:41:28;13.80;;;10.07;;
55346;SDS011;41218;55.700;38.270;2023-08-12T14:46:29;18.40;;;13.05;;
55346;SDS011;41218;55.700;38.270;2023-08-12T14:51:29;18.33;;;11.90;;
55346;SDS011;41218;55.700;38.270;2023-08-12T14:56:30;46.85;;;32.58;;
55346;SDS011;41218;55.700;38.270;2023-08-12T15:01:30;26.77;;;18.90;;
55346;SDS011;41218;55.700;38.270;2023-08-12T15:06:31;29.40;;;21.52;;
55346;SDS011;41218;55.700;38.270;2023-08-12T15:11:32;18.25;;;13.25;;
55346;SDS011;41218;55.700;38.270;2023-08-12T15:16:33;19.08;;;13.02;;
55346;SDS011;41218;55.700;38.270;2023-08-12T15:21:33;16.42;;;10.90;;
55346;SDS011;41218;55.700;38.270;2023-08-12T15:26:34;15.88;;;11.38;;
55346;SDS011;41218;55.700;38.270;2023-08-12T15:31:35;17.98;;;12.70;;
55346;SDS011;41218;55.700;38.270;2023-08-12T15:36:36;18.58;;;13.73;;
55346;SDS011;41218;55.700;38.270;2023-08-12T15:41:41;20.67;;;13.85;;
55346;SDS011;41218;55.700;38.270;2023-08-12T15:46:45;14.93;;;10.25;;
55346;SDS011;41218;55.700;38.270;2023-08-12T15:51:46;16.73;;;10.15;;
55346;SDS011;41218;55.700;38.270;2023-08-12T15:56:47;16.02;;;10.75;;
55346;SDS011;41218;55.700;38.270;2023-08-12T16:01:47;13.45;;;8.95;;
55346;SDS011;41218;55.700;38.270;2023-08-12T16:06:49;15.02;;;9.57;;
55346;SDS011;41218;55.700;38.270;2023-08-12T16:11:49;13.18;;;9.13;;
55346;SDS011;41218;55.700;38.270;2023-08-12T16:16:50;11.88;;;8.65;;
55346;SDS011;41218;55.700;38.270;2023-08-12T16:21:51;10.48;;;8.52;;
55346;SDS011;41218;55.700;38.270;2023-08-12T16:26:52;12.05;;;8.07;;
55346;SDS011;41218;55.700;38.270;2023-08-12T16:31:52;11.98;;;8.48;;
55346;SDS011;41218;55.700;38.270;2023-08-12T16:36:53;17.40;;;11.65;;
55346;SDS011;41218;55.700;38.270;2023-08-12T16:41:53;12.82;;;10.18;;
55346;SDS011;41218;55.700;38.270;2023-08-12T16:46:54;14.25;;;10.20;;
55346;SDS011;41218;55.700;38.270;2023-08-12T16:51:54;16.80;;;10.15;;
55346;SDS011;41218;55.700;38.270;2023-08-12T16:56:55;12.35;;;8.93;;
55346;SDS011;41218;55.700;38.270;2023-08-12T17:01:57;12.85;;;9.13;;
55346;SDS011;41218;55.700;38.270;2023-08-12T17:06:58;13.05;;;9.15;;
55346;SDS011;41218;55.700;38.270;2023-08-12T17:11:59;11.50;;;8.60;;
55346;SDS011;41218;55.700;38.270;2023-08-12T17:17:00;13.73;;;9.40;;
55346;SDS011;41218;55.700;38.270;2023-08-12T17:22:02;14.93;;;8.98;;
55346;SDS011;41218;55.700;38.270;2023-08-12T17:27:02;13.20;;;9.00;;
55346;SDS011;41218;55.700;38.270;2023-08-12T17:32:03;12.18;;;9.40;;
55346;SDS011;41218;55.700;38.270;2023-08-12T17:37:04;19.58;;;14.10;;
55346;SDS011;41218;55.700;38.270;2023-08-12T17:42:05;27.48;;;20.50;;
55346;SDS011;41218;55.700;38.270;2023-08-12T17:47:06;29.20;;;22.77;;
55346;SDS011;41218;55.700;38.270;2023-08-12T17:52:06;23.67;;;18.23;;
55346;SDS011;41218;55.700;38.270;2023-08-12T17:57:07;24.83;;;19.00;;
55346;SDS011;41218;55.700;38.270;2023-08-12T18:02:08;23.92;;;18.08;;
55346;SDS011;41218;55.700;38.270;2023-08-12T18:07:08;30.17;;;23.92;;
55346;SDS011;41218;55.700;38.270;2023-08-12T18:12:09;18.15;;;13.50;;
55346;SDS011;41218;55.700;38.270;2023-08-12T18:17:10;19.52;;;14.27;;
55346;SDS011;41218;55.700;38.270;2023-08-12T18:22:10;19.65;;;14.77;;
55346;SDS011;41218;55.700;38.270;2023-08-12T18:27:11;17.10;;;12.70;;
55346;SDS011;41218;55.700;38.270;2023-08-12T18:32:12;17.23;;;12.18;;
55346;SDS011;41218;55.700;38.270;2023-08-12T18:37:12;17.25;;;13.02;;
55346;SDS011;41218;55.700;38.270;2023-08-12T18:42:13;21.65;;;15.25;;
55346;SDS011;41218;55.700;38.270;2023-08-12T18:47:14;20.48;;;14.35;;
55346;SDS011;41218;55.700;38.270;2023-08-12T18:52:16;18.48;;;14.45;;
55346;SDS011;41218;55.700;38.270;2023-08-12T18:57:17;18.77;;;14.45;;
55346;SDS011;41218;55.700;38.270;2023-08-12T19:02:18;18.33;;;13.85;;
55346;SDS011;41218;55.700;38.270;2023-08-12T19:07:20;16.65;;;13.45;;
55346;SDS011;41218;55.700;38.270;2023-08-12T19:12:21;17.73;;;12.20;;
55346;SDS011;41218;55.700;38.270;2023-08-12T19:17:22;15.30;;;10.35;;
55346;SDS011;41218;55.700;38.270;2023-08-12T19:22:22;15.23;;;10.20;;
55346;SDS011;41218;55.700;38.270;2023-08-12T19:27:23;14.98;;;11.23;;
55346;SDS011;41218;55.700;38.270;2023-08-12T19:32:24;23.48;;;16.70;;
55346;SDS011;41218;55.700;38.270;2023-08-12T19:37:26;26.40;;;17.52;;
55346;SDS011;41218;55.700;38.270;2023-08-12T19:42:26;27.23;;;19.75;;
55346;SDS011;41218;55.700;38.270;2023-08-12T19:47:27;27.83;;;20.73;;
55346;SDS011;41218;55.700;38.270;2023-08-12T19:52:27;24.02;;;17.35;;
55346;SDS011;41218;55.700;38.270;2023-08-12T19:57:28;20.52;;;14.32;;
55346;SDS011;41218;55.700;38.270;2023-08-12T20:02:29;20.25;;;13.75;;
55346;SDS011;41218;55.700;38.270;2023-08-12T20:07:29;23.48;;;15.07;;
55346;SDS011;41218;55.700;38.270;2023-08-12T20:12:30;19.08;;;13.30;;
55346;SDS011;41218;55.700;38.270;2023-08-12T20:17:31;19.63;;;13.18;;
55346;SDS011;41218;55.700;38.270;2023-08-12T20:22:33;19.30;;;13.30;;
55346;SDS011;41218;55.700;38.270;2023-08-12T20:27:33;19.20;;;11.32;;
55346;SDS011;41218;55.700;38.270;2023-08-12T20:32:36;16.17;;;12.13;;
55346;SDS011;41218;55.700;38.270;2023-08-12T20:37:37;17.02;;;11.45;;
55346;SDS011;41218;55.700;38.270;2023-08-12T20:42:37;36.03;;;21.77;;
55346;SDS011;41218;55.700;38.270;2023-08-12T20:47:38;24.83;;;15.40;;
55346;SDS011;41218;55.700;38.270;2023-08-12T20:52:38;22.60;;;13.50;;
55346;SDS011;41218;55.700;38.270;2023-08-12T20:57:39;17.23;;;10.32;;
55346;SDS011;41218;55.700;38.270;2023-08-12T21:02:43;14.25;;;9.57;;
55346;SDS011;41218;55.700;38.270;2023-08-12T21:07:47;21.85;;;11.75;;
55346;SDS011;41218;55.700;38.270;2023-08-12T21:12:47;20.85;;;14.73;;
55346;SDS011;41218;55.700;38.270;2023-08-12T21:17:48;25.92;;;15.30;;
55346;SDS011;41218;55.700;38.270;2023-08-12T21:22:49;27.20;;;17.05;;
55346;SDS011;41218;55.700;38.270;2023-08-12T21:27:49;32.33;;;20.33;;
55346;SDS011;41218;55.700;38.270;2023-08-12T21:32:50;28.35;;;18.27;;
55346;SDS011;41218;55.700;38.270;2023-08-12T21:37:51;51.80;;;31.00;;
55346;SDS011;41218;55.700;38.270;2023-08-12T21:42:52;42.45;;;26.85;;
55346;SDS011;41218;55.700;38.270;2023-08-12T21:47:52;57.10;;;37.63;;
55346;SDS011;41218;55.700;38.270;2023-08-12T21:52:53;78.60;;;45.60;;
55346;SDS011;41218;55.700;38.270;2023-08-12T21:57:53;93.63;;;52.33;;
55346;SDS011;41218;55.700;38.270;2023-08-12T22:02:54;65.93;;;40.75;;
55346;SDS011;41218;55.700;38.270;2023-08-12T22:07:55;31.73;;;22.00;;
55346;SDS011;41218;55.700;38.270;2023-08-12T22:12:56;28.20;;;20.60;;
55346;SDS011;41218;55.700;38.270;2023-08-12T22:17:57;26.60;;;18.52;;
55346;SDS011;41218;55.700;38.270;2023-08-12T22:22:57;21.42;;;15.32;;
55346;SDS011;41218;55.700;38.270;2023-08-12T22:27:58;19.80;;;13.05;;
55346;SDS011;41218;55.700;38.270;2023-08-12T22:32:58;22.33;;;14.50;;
55346;SDS011;41218;55.700;38.270;2023-08-12T22:37:59;22.65;;;15.85;;
55346;SDS011;41218;55.700;38.270;2023-08-12T22:43:00;13.35;;;9.27;;
55346;SDS011;41218;55.700;38.270;2023-08-12T22:48:01;13.57;;;9.25;;
55346;SDS011;41218;55.700;38.270;2023-08-12T22:53:01;13.77;;;9.75;;
55346;SDS011;41218;55.700;38.270;2023-08-12T22:58:02;13.75;;;10.10;;
55346;SDS011;41218;55.700;38.270;2023-08-12T23:03:03;18.42;;;11.80;;
55346;SDS011;41218;55.700;38.270;2023-08-12T23:08:03;14.65;;;10.63;;
55346;SDS011;41218;55.700;38.270;2023-08-12T23:13:04;16.95;;;11.82;;
55346;SDS011;41218;55.700;38.270;2023-08-12T23:18:05;15.98;;;10.15;;
55346;SDS011;41218;55.700;38.270;2023-08-12T23:23:06;12.88;;;8.48;;
55346;SDS011;41218;55.700;38.270;2023-08-12T23:28:06;12.45;;;8.23;;
55346;SDS011;41218;55.700;38.270;2023-08-12T23:33:07;15.60;;;9.52;;
55346;SDS011;41218;55.700;38.270;2023-08-12T23:38:08;19.45;;;13.63;;
55346;SDS011;41218;55.700;38.270;2023-08-12T23:43:08;16.77;;;11.65;;
55346;SDS011;41218;55.700;38.270;2023-08-12T23:48:09;16.70;;;10.63;;
55346;SDS011;41218;55.700;38.270;2023-08-12T23:53:09;12.85;;;9.90;;
55346;SDS011;41218;55.700;38.270;2023-08-12T23:58:10;14.02;;;9.05;;
